Time;durP1;ratioP1;P1;durP2;ratioP2;P2;SDS_P1;SDS_P2;PMS_P1;PMS_P2;Temp;Humidity;BMP_temperature;BMP_pressure;BME280_temperature;BME280_humidity;BME280_pressure;Samples;Min_cycle;Max_cycle;Signal;HPM_P1;HPM_P2
2023/07/02 00:01:50;;;;;;;2.38;1.25;;;20.50;33.20;;;;;;5153418;28;20022;-75
2023/07/02 00:04:22;;;;;;;1.60;1.50;;;20.60;99.90;;;;;;5148081;28;20371;-72
2023/07/02 00:06:56;;;;;;;1.60;1.50;;;20.70;80.10;;;;;;5160937;28;20057;-72
2023/07/02 00:09:28;;;;;;;1.65;1.45;;;20.70;36.80;;;;;;5178638;28;20117;-72
2023/07/02 00:11:59;;;;;;;3.83;1.50;;;20.70;99.90;;;;;;5175955;28;20167;-71
2023/07/02 00:14:35;;;;;;;3.33;2.03;;;20.70;96.30;;;;;;5177405;28;20041;-73
2023/07/02 00:17:07;;;;;;;2.08;1.88;;;20.70;42.70;;;;;;5177964;28;20030;-72
2023/07/02 00:19:41;;;;;;;1.95;1.20;;;20.70;91.20;;;;;;5194832;28;20030;-72
2023/07/02 00:22:15;;;;;;;2.20;1.60;;;20.70;44.90;;;;;;5182125;28;20071;-71
2023/07/02 00:24:51;;;;;;;1.60;1.50;;;20.70;88.30;;;;;;5177535;28;20021;-71
2023/07/02 00:27:22;;;;;;;1.30;1.20;;;20.70;99.90;;;;;;5160928;28;20037;-71
2023/07/02 00:29:53;;;;;;;1.73;1.50;;;20.70;99.90;;;;;;5173417;28;20496;-72
2023/07/02 00:32:25;;;;;;;1.83;1.55;;;20.80;99.90;;;;;;5176582;28;20048;-72
2023/07/02 00:34:56;;;;;;;1.50;1.40;;;20.80;11.40;;;;;;5168522;28;20050;-72
2023/07/02 00:37:30;;;;;;;2.25;1.70;;;20.70;53.90;;;;;;5161107;28;20263;-72
2023/07/02 00:40:02;;;;;;;2.20;2.00;;;20.70;1.00;;;;;;5160899;28;20030;-72
2023/07/02 00:42:39;;;;;;;3.10;1.42;;;20.70;30.40;;;;;;5176567;28;20354;-73
2023/07/02 00:45:13;;;;;;;1.50;1.40;;;20.70;99.90;;;;;;5175265;28;20041;-73
2023/07/02 00:47:45;;;;;;;2.43;1.60;;;20.60;15.60;;;;;;5178805;28;20372;-73
2023/07/02 00:50:16;;;;;;;1.65;1.50;;;20.60;55.40;;;;;;5127511;28;20278;-71
2023/07/02 00:52:56;;;;;;;3.50;1.38;;;20.60;5.40;;;;;;5177067;28;20505;-72
2023/07/02 00:55:27;;;;;;;1.50;1.38;;;20.60;43.10;;;;;;5178487;28;20048;-72
2023/07/02 00:58:01;;;;;;;1.42;1.30;;;20.60;65.10;;;;;;5178503;28;20030;-72
2023/07/02 01:00:36;;;;;;;1.50;1.30;;;20.70;75.70;;;;;;5217598;22;20029;-71
2023/07/02 01:03:08;;;;;;;2.25;1.30;;;20.70;1.00;;;;;;5261865;22;20056;-71
2023/07/02 01:05:41;;;;;;;1.55;1.45;;;20.70;1.00;;;;;;5197200;28;20637;-71
2023/07/02 01:08:14;;;;;;;2.03;1.33;;;20.70;1.00;;;;;;5222266;28;20055;-70
2023/07/02 01:10:46;;;;;;;2.63;1.40;;;20.80;1.00;;;;;;5244393;28;20455;-71
2023/07/02 01:13:24;;;;;;;1.60;1.40;;;20.80;1.00;;;;;;5236759;28;20036;-71
2023/07/02 01:15:58;;;;;;;1.95;1.10;;;20.80;1.00;;;;;;5225949;28;20409;-71
2023/07/02 01:18:30;;;;;;;1.33;1.10;;;20.80;81.70;;;;;;5230759;28;20221;-71
2023/07/02 01:21:06;;;;;;;1.77;1.45;;;20.80;1.00;;;;;;5230842;28;20032;-71
2023/07/02 01:23:41;;;;;;;2.08;1.48;;;20.70;10.70;;;;;;5242982;28;20044;-71
2023/07/02 01:26:12;;;;;;;2.55;2.05;;;20.70;1.00;;;;;;5223870;28;20024;-71
2023/07/02 01:28:46;;;;;;;1.33;1.23;;;20.70;1.00;;;;;;5226608;28;20039;-72
2023/07/02 01:31:24;;;;;;;1.42;1.17;;;20.80;1.00;;;;;;5241865;28;20029;-72
2023/07/02 01:33:56;;;;;;;1.85;1.30;;;20.70;1.00;;;;;;5250384;28;20414;-71
2023/07/02 01:36:33;;;;;;;1.67;1.30;;;20.70;1.00;;;;;;5226139;28;20028;-71
2023/07/02 01:39:05;;;;;;;1.63;1.30;;;20.60;1.00;;;;;;5229974;28;20339;-72
2023/07/02 01:42:04;;;;;;;1.88;1.30;;;20.60;1.00;;;;;;5241563;28;20476;-70
2023/07/02 01:44:37;;;;;;;2.20;1.35;;;20.60;1.00;;;;;;5211513;28;20055;-71
2023/07/02 01:47:09;;;;;;;1.67;1.50;;;20.60;1.00;;;;;;5221143;28;20353;-72
2023/07/02 01:49:43;;;;;;;1.92;1.35;;;20.40;1.00;;;;;;5221881;28;20025;-70
2023/07/02 01:52:15;;;;;;;1.58;1.40;;;20.40;1.00;;;;;;5228818;28;20035;-72
2023/07/02 01:54:47;;;;;;;1.80;1.60;;;20.40;1.00;;;;;;5233157;28;20041;-70
2023/07/02 01:57:22;;;;;;;1.50;1.40;;;20.30;1.00;;;;;;5221093;28;20037;-70
2023/07/02 01:59:57;;;;;;;3.90;1.50;;;20.30;1.00;;;;;;5255673;28;20324;-71
2023/07/02 02:02:33;;;;;;;;;;;20.20;1.00;;;;;;5228110;28;20101;-71
2023/07/02 02:05:09;;;;;;;2.03;1.27;;;20.10;1.00;;;;;;5214762;28;19921;-71
2023/07/02 02:07:40;;;;;;;1.52;1.20;;;20.10;2.80;;;;;;5204989;28;20033;-72
2023/07/02 02:10:14;;;;;;;2.00;1.35;;;20.00;1.00;;;;;;5221622;28;20028;-70
2023/07/02 02:12:46;;;;;;;1.83;1.50;;;20.00;1.00;;;;;;5221314;28;20055;-71
2023/07/02 02:15:20;;;;;;;1.92;1.40;;;20.00;1.00;;;;;;5204345;28;20039;-71
2023/07/02 02:17:57;;;;;;;2.13;1.55;;;20.00;1.00;;;;;;5220615;28;20045;-70
2023/07/02 02:20:29;;;;;;;1.73;1.63;;;20.00;1.00;;;;;;5203400;28;20250;-73
2023/07/02 02:23:02;;;;;;;2.00;1.80;;;20.00;52.80;;;;;;5222083;28;20214;-72
2023/07/02 02:25:33;;;;;;;2.33;1.55;;;20.00;99.90;;;;;;5221965;28;20515;-72
2023/07/02 02:28:04;;;;;;;2.78;1.77;;;19.90;71.40;;;;;;5225000;28;20039;-70
2023/07/02 02:30:38;;;;;;;1.55;1.25;;;19.90;99.90;;;;;;5220521;28;20032;-71
2023/07/02 02:33:10;;;;;;;1.80;1.60;;;19.80;99.90;;;;;;5205803;28;20037;-73
2023/07/02 02:35:41;;;;;;;5.35;2.45;;;19.80;99.90;;;;;;5214861;28;20052;-71
2023/07/02 02:38:14;;;;;;;2.60;1.92;;;19.80;99.90;;;;;;5222095;28;20351;-70
2023/07/02 02:40:46;;;;;;;1.98;1.50;;;19.80;99.90;;;;;;5205461;28;20265;-71
2023/07/02 02:43:17;;;;;;;3.65;1.50;;;19.70;99.90;;;;;;5203291;28;20282;-71
2023/07/02 02:45:49;;;;;;;2.75;1.70;;;19.60;99.90;;;;;;5219246;28;20041;-72
2023/07/02 02:48:22;;;;;;;1.70;1.60;;;19.60;99.90;;;;;;5223221;28;20043;-70
2023/07/02 02:50:59;;;;;;;2.50;1.50;;;19.60;99.90;;;;;;5206057;28;20037;-71
2023/07/02 02:53:32;;;;;;;2.17;1.98;;;19.60;99.90;;;;;;5201626;28;20039;-73
2023/07/02 02:56:04;;;;;;;1.77;1.67;;;19.60;99.90;;;;;;5218980;28;20033;-71
2023/07/02 02:58:35;;;;;;;2.40;1.67;;;19.60;99.90;;;;;;5213385;28;20475;-71
2023/07/02 03:01:10;;;;;;;2.85;1.83;;;19.60;99.90;;;;;;5181692;28;20025;-71
2023/07/02 03:03:45;;;;;;;2.42;1.90;;;19.50;99.90;;;;;;5217897;28;20067;-73
2023/07/02 03:06:16;;;;;;;1.77;1.67;;;19.50;1.00;;;;;;5226349;28;20052;-71
2023/07/02 03:08:49;;;;;;;1.95;1.80;;;19.50;99.90;;;;;;5223052;28;20039;-72
2023/07/02 03:11:21;;;;;;;1.90;1.80;;;19.50;99.90;;;;;;5206389;28;20505;-72
2023/07/02 03:13:52;;;;;;;2.40;1.77;;;19.50;1.00;;;;;;5212753;28;20029;-71
2023/07/02 03:16:26;;;;;;;2.20;1.85;;;19.60;1.00;;;;;;5218513;28;20041;-71
2023/07/02 03:18:58;;;;;;;1.95;1.83;;;19.70;1.00;;;;;;5220446;28;20033;-72
2023/07/02 03:21:33;;;;;;;2.05;1.73;;;19.70;1.00;;;;;;5202390;28;20029;-71
2023/07/02 03:24:04;;;;;;;;;;;19.80;1.00;;;;;;5235488;28;20056;-72
2023/07/02 03:26:35;;;;;;;1.75;1.40;;;19.80;1.00;;;;;;5205915;28;19905;-72
2023/07/02 03:29:07;;;;;;;2.40;1.80;;;20.00;99.90;;;;;;5203057;28;20329;-70
2023/07/02 03:31:44;;;;;;;2.85;2.08;;;20.10;99.90;;;;;;5212912;28;20033;-73
2023/07/02 03:34:22;;;;;;;3.53;1.90;;;20.20;1.00;;;;;;5225226;28;20033;-71
2023/07/02 03:36:53;;;;;;;2.63;1.58;;;20.30;99.90;;;;;;5236806;28;20421;-70
2023/07/02 03:39:24;;;;;;;5.35;1.70;;;20.40;99.90;;;;;;5192450;28;20048;-70
2023/07/02 03:41:58;;;;;;;2.15;1.50;;;20.50;99.90;;;;;;5232230;28;20082;-72
2023/07/02 03:44:29;;;;;;;2.67;1.92;;;20.60;99.90;;;;;;5221831;28;20032;-70
2023/07/02 03:47:01;;;;;;;4.03;1.67;;;20.70;99.90;;;;;;5227683;28;20033;-71
2023/07/02 03:49:32;;;;;;;3.38;1.55;;;20.80;99.90;;;;;;5213740;28;20053;-71
2023/07/02 03:52:06;;;;;;;1.77;1.48;;;20.90;99.90;;;;;;5192961;28;20039;-72
2023/07/02 03:54:37;;;;;;;1.58;1.38;;;21.00;99.90;;;;;;5218730;28;20071;-72
2023/07/02 03:57:09;;;;;;;2.42;1.80;;;20.90;99.90;;;;;;5220179;28;20337;-71
2023/07/02 03:59:40;;;;;;;2.38;1.90;;;20.90;99.90;;;;;;5195827;28;20041;-72
2023/07/02 04:02:14;;;;;;;2.85;1.63;;;21.00;99.90;;;;;;5200796;28;20045;-70
2023/07/02 04:04:50;;;;;;;2.83;2.00;;;21.00;99.90;;;;;;5201775;28;20080;-72
2023/07/02 04:07:23;;;;;;;2.00;1.80;;;21.10;99.90;;;;;;5203641;28;20324;-73
2023/07/02 04:09:54;;;;;;;3.53;1.85;;;21.10;99.90;;;;;;5201368;28;20535;-72
2023/07/02 04:12:27;;;;;;;1.73;1.63;;;21.20;99.90;;;;;;5182302;28;20068;-70
2023/07/02 04:14:59;;;;;;;2.45;1.95;;;21.10;99.90;;;;;;5215272;28;20045;-70
2023/07/02 04:17:30;;;;;;;2.15;1.52;;;21.20;99.90;;;;;;5184304;28;20215;-71
2023/07/02 04:20:07;;;;;;;2.88;1.95;;;21.10;1.00;;;;;;5218675;28;20043;-72
2023/07/02 04:22:40;;;;;;;2.45;1.50;;;21.00;1.00;;;;;;5233278;28;20037;-71
2023/07/02 04:25:16;;;;;;;3.33;2.05;;;20.70;1.00;;;;;;5204354;28;20075;-71
2023/07/02 04:27:56;;;;;;;2.08;1.70;;;20.60;1.00;;;;;;5236054;28;20027;-71
2023/07/02 04:30:30;;;;;;;2.10;1.50;;;20.60;1.00;;;;;;5201154;28;20029;-72
2023/07/02 04:33:13;;;;;;;2.05;1.50;;;20.60;1.00;;;;;;5190274;28;20341;-71
2023/07/02 04:35:45;;;;;;;2.08;1.88;;;20.60;1.00;;;;;;5218451;28;20040;-71
2023/07/02 04:38:17;;;;;;;1.95;1.65;;;20.50;28.70;;;;;;5201578;28;20045;-71
2023/07/02 04:40:51;;;;;;;1.95;1.75;;;20.50;99.90;;;;;;5198178;28;20254;-71
2023/07/02 04:43:23;;;;;;;3.00;1.73;;;20.50;99.90;;;;;;5208797;28;20033;-72
2023/07/02 04:45:59;;;;;;;3.30;1.77;;;20.50;1.00;;;;;;5204900;28;20037;-72
2023/07/02 04:48:33;;;;;;;2.40;1.65;;;20.60;1.00;;;;;;5220194;28;20036;-73
2023/07/02 04:51:05;;;;;;;2.03;1.83;;;20.50;1.00;;;;;;5206486;28;20032;-70
2023/07/02 04:53:37;;;;;;;2.30;1.85;;;20.40;1.00;;;;;;5203313;28;20035;-72
2023/07/02 04:56:08;;;;;;;2.08;1.58;;;20.40;1.00;;;;;;5185102;28;20059;-71
2023/07/02 04:58:43;;;;;;;1.63;1.52;;;20.40;1.00;;;;;;5218642;28;20048;-70
2023/07/02 05:01:14;;;;;;;4.78;1.77;;;20.30;1.00;;;;;;5218504;28;20043;-70
2023/07/02 05:03:45;;;;;;;3.13;1.75;;;20.30;99.90;;;;;;5213959;28;20035;-71
2023/07/02 05:06:21;;;;;;;2.38;1.40;;;20.30;99.90;;;;;;5178547;28;20053;-71
2023/07/02 05:08:56;;;;;;;2.45;1.83;;;20.30;99.90;;;;;;5165509;28;20044;-71
2023/07/02 05:11:29;;;;;;;3.17;1.35;;;20.40;99.90;;;;;;5165571;28;20033;-72
2023/07/02 05:14:01;;;;;;;1.38;1.27;;;20.40;1.00;;;;;;5182288;28;20037;-72
2023/07/02 05:16:32;;;;;;;1.50;1.40;;;20.30;1.00;;;;;;5178971;28;20362;-71
2023/07/02 05:19:03;;;;;;;2.10;1.70;;;20.10;1.00;;;;;;5183670;28;20052;-72
2023/07/02 05:21:35;;;;;;;2.00;1.70;;;20.00;1.00;;;;;;5184685;28;20238;-71
2023/07/02 05:24:10;;;;;;;1.58;1.48;;;19.90;1.00;;;;;;5182987;28;20072;-72
2023/07/02 05:26:42;;;;;;;1.52;1.33;;;20.00;1.00;;;;;;5180341;28;20042;-72
2023/07/02 05:29:19;;;;;;;2.20;2.05;;;19.90;92.10;;;;;;5170607;28;20037;-71
2023/07/02 05:31:50;;;;;;;1.40;1.30;;;20.00;76.70;;;;;;5201368;28;20040;-71
2023/07/02 05:34:24;;;;;;;1.40;1.30;;;20.00;51.60;;;;;;5186094;28;20030;-71
2023/07/02 05:36:55;;;;;;;3.50;1.60;;;20.00;99.90;;;;;;5183619;28;20028;-71
2023/07/02 05:39:29;;;;;;;1.80;1.42;;;20.10;99.90;;;;;;5190154;28;20037;-71
2023/07/02 05:42:00;;;;;;;1.88;1.77;;;20.20;99.90;;;;;;5152569;28;20053;-69
2023/07/02 05:44:32;;;;;;;1.90;1.50;;;20.20;99.90;;;;;;5171008;28;20044;-70
2023/07/02 05:47:03;;;;;;;1.33;1.23;;;20.30;99.90;;;;;;5182482;28;20037;-71
2023/07/02 05:49:34;;;;;;;1.63;1.23;;;20.30;99.90;;;;;;5184637;28;20033;-71
2023/07/02 05:52:06;;;;;;;1.75;1.30;;;20.40;99.90;;;;;;5183900;28;20045;-70
2023/07/02 05:54:46;;;;;;;1.40;1.30;;;20.50;99.90;;;;;;5166099;28;20040;-70
2023/07/02 05:57:17;;;;;;;1.75;1.25;;;20.30;99.90;;;;;;5188248;28;20048;-71
2023/07/02 05:59:49;;;;;;;2.50;1.60;;;20.30;99.90;;;;;;5202242;28;20635;-71
2023/07/02 06:02:23;;;;;;;1.30;1.15;;;20.30;99.90;;;;;;5200030;28;20341;-71
2023/07/02 06:04:57;;;;;;;;;;;20.40;99.90;;;;;;5147135;28;20113;-72
2023/07/02 06:07:31;;;;;;;1.33;1.23;;;20.40;99.90;;;;;;5185413;28;19916;-71
2023/07/02 06:10:03;;;;;;;2.15;1.95;;;20.40;99.90;;;;;;5197080;28;20041;-72
2023/07/02 06:12:38;;;;;;;1.50;1.35;;;20.30;99.90;;;;;;5163955;28;20038;-71
2023/07/02 06:15:10;;;;;;;1.67;1.48;;;20.30;99.90;;;;;;5159372;28;20041;-72
2023/07/02 06:17:41;;;;;;;1.23;1.13;;;20.30;99.90;;;;;;5180103;28;20052;-69
2023/07/02 06:20:15;;;;;;;1.38;1.20;;;20.40;99.90;;;;;;5184004;28;20029;-71
2023/07/02 06:22:47;;;;;;;1.30;1.20;;;20.50;99.90;;;;;;5185041;28;20107;-73
2023/07/02 06:25:18;;;;;;;1.45;1.35;;;20.60;99.90;;;;;;5185852;28;20051;-73
2023/07/02 06:27:49;;;;;;;1.48;1.05;;;20.70;17.70;;;;;;5202891;28;20029;-73
2023/07/02 06:30:25;;;;;;;1.70;1.60;;;20.70;26.60;;;;;;5202718;28;20043;-74
2023/07/02 06:32:56;;;;;;;1.40;1.30;;;20.60;28.80;;;;;;5202539;28;20298;-74
2023/07/02 06:35:32;;;;;;;1.92;1.50;;;20.50;99.90;;;;;;5219676;28;20029;-74
2023/07/02 06:38:03;;;;;;;1.17;1.08;;;20.50;99.90;;;;;;5202880;28;20037;-73
2023/07/02 06:40:34;;;;;;;1.23;1.15;;;20.50;99.90;;;;;;5202414;28;20263;-74
2023/07/02 06:43:06;;;;;;;1.95;1.67;;;20.60;99.90;;;;;;5185476;28;20039;-74
2023/07/02 06:45:37;;;;;;;1.65;1.35;;;20.60;70.50;;;;;;5201359;28;20033;-74
2023/07/02 06:48:11;;;;;;;1.80;1.42;;;20.60;49.80;;;;;;5201771;28;20033;-73
2023/07/02 06:50:45;;;;;;;1.88;1.35;;;20.70;99.90;;;;;;5185037;28;20209;-74
2023/07/02 06:53:22;;;;;;;1.27;1.17;;;20.90;1.00;;;;;;5219197;28;20037;-72
2023/07/02 06:55:53;;;;;;;1.77;1.67;;;21.50;1.00;;;;;;5202153;28;20049;-74
2023/07/02 06:58:38;;;;;;;1.20;1.13;;;22.10;99.90;;;;;;5202046;28;20041;-74
2023/07/02 07:01:14;;;;;;;1.42;1.33;;;22.30;1.00;;;;;;5201866;28;20051;-75
2023/07/02 07:03:48;;;;;;;1.30;1.20;;;22.40;1.00;;;;;;5201176;28;20033;-75
2023/07/02 07:06:23;;;;;;;;;;;22.70;1.00;;;;;;5208014;28;20318;-74
2023/07/02 07:08:57;;;;;;;1.45;1.35;;;22.90;1.00;;;;;;5201651;28;19908;-76
2023/07/02 07:11:29;;;;;;;1.48;1.38;;;23.10;1.00;;;;;;5201760;28;20033;-75
2023/07/02 07:14:01;;;;;;;1.35;1.25;;;23.00;1.00;;;;;;5201785;28;20036;-76
2023/07/02 07:16:34;;;;;;;1.95;1.63;;;23.10;1.00;;;;;;5201634;28;20033;-73
2023/07/02 07:19:07;;;;;;;1.67;1.57;;;22.90;1.00;;;;;;5184818;28;20037;-75
2023/07/02 07:21:43;;;;;;;1.73;1.50;;;22.90;1.00;;;;;;5201825;28;20259;-73
2023/07/02 07:24:14;;;;;;;1.55;1.40;;;23.00;1.00;;;;;;5185949;28;20104;-74
2023/07/02 07:26:49;;;;;;;2.67;1.52;;;22.80;1.00;;;;;;5218623;28;20029;-74
2023/07/02 07:29:22;;;;;;;;;;;22.60;1.00;;;;;;5185792;28;20041;-74
2023/07/02 07:31:53;;;;;;;2.28;1.70;;;22.60;1.00;;;;;;5200494;28;20085;-75
2023/07/02 07:34:24;;;;;;;1.67;1.50;;;22.70;1.00;;;;;;5219561;28;20043;-75
2023/07/02 07:36:55;;;;;;;1.63;1.52;;;22.80;1.00;;;;;;5184324;28;20229;-74
2023/07/02 07:39:29;;;;;;;2.17;1.98;;;22.90;1.00;;;;;;5218496;28;20328;-75
2023/07/02 07:42:01;;;;;;;1.80;1.58;;;23.20;99.90;;;;;;5200200;28;20036;-75
2023/07/02 07:44:34;;;;;;;2.38;1.50;;;23.30;99.90;;;;;;5200886;28;20033;-75
2023/07/02 07:47:06;;;;;;;1.73;1.63;;;23.50;99.90;;;;;;5184482;28;20037;-76
2023/07/02 07:49:40;;;;;;;2.00;1.75;;;23.20;99.90;;;;;;5184047;28;20039;-76
2023/07/02 07:52:14;;;;;;;1.88;1.40;;;23.30;99.90;;;;;;5201175;28;20043;-75
2023/07/02 07:54:48;;;;;;;1.60;1.45;;;23.80;99.90;;;;;;5185815;28;20044;-74
2023/07/02 07:57:19;;;;;;;1.60;1.40;;;24.20;99.90;;;;;;5200540;28;20355;-76
2023/07/02 07:59:53;;;;;;;1.60;1.50;;;24.40;1.00;;;;;;5218240;28;20029;-76
2023/07/02 08:02:27;;;;;;;2.38;2.00;;;23.80;1.00;;;;;;5183719;28;20045;-73
2023/07/02 08:04:59;;;;;;;2.30;1.70;;;23.80;1.00;;;;;;5207672;28;20048;-75
2023/07/02 08:07:32;;;;;;;2.00;1.65;;;24.10;1.00;;;;;;5216372;28;20278;-75
2023/07/02 08:10:08;;;;;;;1.50;1.40;;;24.50;1.00;;;;;;5200352;28;20039;-72
2023/07/02 08:12:39;;;;;;;2.42;1.88;;;24.10;1.00;;;;;;5201233;28;20205;-73
2023/07/02 08:18:38;;;;;;;1.75;1.65;;;24.00;1.00;;;;;;5200562;28;20029;-75
2023/07/02 08:21:11;;;;;;;1.20;1.10;;;24.20;1.00;;;;;;5218525;28;20051;-74
2023/07/02 08:23:44;;;;;;;2.92;1.52;;;24.30;1.00;;;;;;5200764;28;20025;-75
2023/07/02 08:26:22;;;;;;;1.63;1.50;;;24.30;1.00;;;;;;5200621;28;20021;-74
2023/07/02 08:28:55;;;;;;;1.40;1.30;;;24.80;1.00;;;;;;5199631;28;20037;-76
2023/07/02 08:31:29;;;;;;;1.30;1.20;;;25.00;1.00;;;;;;5200679;28;20033;-73
2023/07/02 08:34:04;;;;;;;;;;;25.40;99.90;;;;;;5184527;28;20059;-74
2023/07/02 08:36:35;;;;;;;1.52;1.38;;;24.90;1.00;;;;;;5199487;28;19911;-74
2023/07/02 08:39:11;;;;;;;1.40;1.30;;;25.10;1.00;;;;;;5183229;28;20328;-75
2023/07/02 08:41:44;;;;;;;1.70;1.45;;;25.10;1.00;;;;;;5218659;28;20055;-75
2023/07/02 08:44:20;;;;;;;1.45;1.35;;;25.30;1.00;;;;;;5216983;28;20017;-75
2023/07/02 08:46:55;;;;;;;1.50;1.27;;;25.00;1.00;;;;;;5183602;28;20335;-76
2023/07/02 08:49:28;;;;;;;1.60;1.40;;;24.50;1.00;;;;;;5185693;28;20033;-74
2023/07/02 08:52:00;;;;;;;1.67;1.55;;;24.60;1.00;;;;;;5185299;28;20030;-76
2023/07/02 08:54:31;;;;;;;1.55;1.42;;;25.00;1.00;;;;;;5207108;28;20035;-75
2023/07/02 08:57:05;;;;;;;1.45;1.35;;;25.10;1.00;;;;;;5222100;28;20043;-76
2023/07/02 08:59:37;;;;;;;1.60;1.27;;;25.50;1.00;;;;;;5221424;28;20332;-72
2023/07/02 09:02:08;;;;;;;2.05;1.52;;;25.50;99.90;;;;;;5211175;28;20340;-76
2023/07/02 09:04:40;;;;;;;1.65;1.45;;;25.60;99.90;;;;;;5205768;28;20108;-77
2023/07/02 09:07:11;;;;;;;1.70;1.58;;;25.70;99.90;;;;;;5197803;28;20029;-74
2023/07/02 09:09:46;;;;;;;1.83;1.42;;;25.50;99.90;;;;;;5180195;28;20035;-72
2023/07/02 09:12:38;;;;;;;1.50;1.40;;;25.10;37.80;;;;;;5186586;28;20034;-73
2023/07/02 09:15:14;;;;;;;1.65;1.15;;;25.90;1.00;;;;;;5178916;28;20033;-72
2023/07/02 09:17:50;;;;;;;1.65;1.15;;;26.60;1.00;;;;;;5164160;28;20030;-75
2023/07/02 09:20:32;;;;;;;1.40;1.27;;;27.20;1.00;;;;;;5195508;28;20030;-76
2023/07/02 09:23:05;;;;;;;1.42;1.30;;;26.60;1.00;;;;;;5164209;28;20025;-75
2023/07/02 09:25:38;;;;;;;1.70;1.52;;;26.70;1.00;;;;;;5163922;28;20037;-76
2023/07/02 09:28:19;;;;;;;1.42;1.27;;;26.30;99.90;;;;;;5163536;28;20040;-76
2023/07/02 09:30:58;;;;;;;1.52;1.42;;;26.30;99.90;;;;;;5164651;28;20034;-76
2023/07/02 09:33:29;;;;;;;1.45;1.30;;;26.10;99.90;;;;;;5182141;28;20036;-74
2023/07/02 09:39:33;;;;;;;1.60;1.20;;;26.00;99.90;;;;;;5182955;28;20033;-76
2023/07/02 09:42:09;;;;;;;1.35;1.20;;;26.10;99.90;;;;;;5167109;28;20030;-74
2023/07/02 09:44:42;;;;;;;1.27;1.17;;;26.00;99.90;;;;;;5200057;28;20025;-74
2023/07/02 09:47:18;;;;;;;1.55;1.33;;;26.30;99.90;;;;;;5183224;28;20290;-77
2023/07/02 09:49:54;;;;;;;1.90;1.30;;;26.30;99.90;;;;;;5166007;28;20029;-73
2023/07/02 09:52:29;;;;;;;1.42;1.30;;;25.90;1.00;;;;;;5182770;28;20034;-72
2023/07/02 09:58:31;;;;;;;1.67;1.17;;;27.10;99.90;;;;;;5200152;28;20022;-74
2023/07/02 10:01:03;;;;;;;2.83;1.40;;;27.00;99.90;;;;;;5199304;28;20175;-72
2023/07/02 10:03:35;;;;;;;1.45;1.23;;;27.50;99.90;;;;;;5165897;28;20048;-73
2023/07/02 10:06:06;;;;;;;1.38;1.27;;;27.40;99.90;;;;;;5156290;28;20045;-73
2023/07/02 10:08:38;;;;;;;1.85;1.48;;;27.40;99.90;;;;;;5165443;28;20029;-73
2023/07/02 10:11:13;;;;;;;2.03;1.40;;;27.20;99.90;;;;;;5186745;28;20044;-73
2023/07/02 10:13:44;;;;;;;1.30;1.20;;;26.80;99.90;;;;;;5219031;28;20043;-72
2023/07/02 10:16:21;;;;;;;1.90;1.55;;;27.20;99.90;;;;;;5218738;28;20035;-73
2023/07/02 10:18:53;;;;;;;1.30;1.13;;;27.50;99.90;;;;;;5203055;28;20044;-72
2023/07/02 10:21:27;;;;;;;1.17;1.10;;;27.20;97.20;;;;;;5186535;28;20096;-72
2023/07/02 10:24:15;;;;;;;1.75;1.63;;;26.70;99.90;;;;;;5185565;28;20029;-73
2023/07/02 10:26:59;;;;;;;1.38;1.10;;;26.60;70.80;;;;;;5202236;28;20029;-72
2023/07/02 10:29:33;;;;;;;;;;;26.40;63.60;;;;;;5203243;28;20037;-73
2023/07/02 10:32:04;;;;;;;1.42;1.33;;;26.40;16.40;;;;;;5218374;28;19907;-73
2023/07/02 10:34:41;;;;;;;1.20;1.10;;;26.50;29.50;;;;;;5218144;28;20037;-71
2023/07/02 10:37:12;;;;;;;1.95;1.35;;;27.00;99.90;;;;;;5202480;28;20031;-73
2023/07/02 10:39:44;;;;;;;2.22;1.40;;;27.90;97.60;;;;;;5185531;28;20041;-73
2023/07/02 10:42:15;;;;;;;1.70;1.33;;;28.70;63.20;;;;;;5185418;28;20033;-73
2023/07/02 10:44:53;;;;;;;1.15;1.08;;;29.40;1.00;;;;;;5185185;28;20031;-73
2023/07/02 10:47:25;;;;;;;1.85;1.30;;;28.80;99.90;;;;;;5201220;28;20036;-73
2023/07/02 10:49:58;;;;;;;2.00;1.58;;;28.70;1.00;;;;;;5202561;28;20029;-73
2023/07/02 10:52:37;;;;;;;1.67;1.37;;;28.70;1.00;;;;;;5219156;28;20035;-73
2023/07/02 10:58:43;;;;;;;2.22;1.17;;;27.50;99.90;;;;;;5200844;28;20029;-73
2023/07/02 11:01:22;;;;;;;1.60;1.20;;;28.20;99.90;;;;;;5180563;28;20214;-73
2023/07/02 11:04:01;;;;;;;1.50;1.40;;;27.80;99.90;;;;;;5178819;28;20042;-72
2023/07/02 11:06:35;;;;;;;1.60;1.33;;;27.70;99.90;;;;;;5188576;28;20057;-72
2023/07/02 11:09:17;;;;;;;2.25;1.30;;;27.40;99.90;;;;;;5216639;28;20467;-72
2023/07/02 11:11:56;;;;;;;1.15;1.05;;;27.10;99.90;;;;;;5179190;28;20029;-72
2023/07/02 11:14:32;;;;;;;1.10;0.90;;;26.90;99.90;;;;;;5197085;28;20033;-72
2023/07/02 11:17:07;;;;;;;1.63;1.30;;;26.80;99.90;;;;;;5197788;28;20032;-72
2023/07/02 11:19:38;;;;;;;;;;;27.70;99.90;;;;;;5198308;28;20047;-71
2023/07/02 11:22:16;;;;;;;3.58;1.50;;;27.40;99.90;;;;;;5198671;28;19908;-72
2023/07/02 11:24:47;;;;;;;2.33;1.20;;;26.80;99.90;;;;;;5198219;28;20205;-71
2023/07/02 11:27:27;;;;;;;1.20;1.10;;;26.80;99.90;;;;;;5196810;28;20044;-72
2023/07/02 11:30:02;;;;;;;1.52;1.20;;;26.80;99.90;;;;;;5180564;28;20040;-71
2023/07/02 11:32:57;;;;;;;2.08;1.40;;;27.00;99.90;;;;;;5197613;28;20040;-72
2023/07/02 11:35:35;;;;;;;;;;;27.60;99.90;;;;;;5180554;28;20034;-72
2023/07/02 11:38:10;;;;;;;1.05;0.95;;;28.40;99.90;;;;;;5181250;28;19912;-71
2023/07/02 11:40:48;;;;;;;1.27;1.00;;;29.00;99.90;;;;;;5181166;28;20048;-72
2023/07/02 11:43:20;;;;;;;1.10;1.10;;;30.00;99.90;;;;;;5197345;28;20025;-73
2023/07/02 11:45:52;;;;;;;1.60;1.40;;;30.10;99.90;;;;;;5180567;28;20029;-72
2023/07/02 11:48:23;;;;;;;1.10;1.00;;;31.60;99.90;;;;;;5198214;28;20029;-72
2023/07/02 11:50:55;;;;;;;1.23;1.08;;;31.80;99.90;;;;;;5197379;28;20025;-73
2023/07/02 11:53:34;;;;;;;1.48;1.38;;;30.30;99.90;;;;;;5195990;28;20061;-71
2023/07/02 11:56:30;;;;;;;1.70;1.27;;;31.10;99.90;;;;;;5179127;28;20046;-72
2023/07/02 11:59:01;;;;;;;1.50;1.38;;;31.10;99.90;;;;;;5180662;28;20069;-72
2023/07/02 12:01:33;;;;;;;1.13;1.02;;;31.30;99.90;;;;;;5196422;28;20056;-73
2023/07/02 12:04:07;;;;;;;1.58;1.27;;;30.50;99.90;;;;;;5191783;28;20049;-72
2023/07/02 12:06:41;;;;;;;2.28;1.42;;;29.80;99.90;;;;;;5165715;28;20038;-73
2023/07/02 12:09:14;;;;;;;2.03;1.25;;;29.50;94.00;;;;;;5143140;28;20038;-72
2023/07/02 12:11:49;;;;;;;2.25;1.20;;;29.30;97.40;;;;;;5143911;28;20333;-72
2023/07/02 12:14:20;;;;;;;1.77;1.45;;;29.30;97.80;;;;;;5143772;28;20038;-72
2023/07/02 12:16:52;;;;;;;1.23;1.13;;;29.20;99.70;;;;;;5142921;28;20034;-72
2023/07/02 12:19:25;;;;;;;1.45;1.20;;;28.70;60.40;;;;;;5177437;28;20048;-72
2023/07/02 12:21:59;;;;;;;1.33;1.23;;;28.80;86.40;;;;;;5144312;28;20045;-72
2023/07/02 12:24:30;;;;;;;1.15;1.10;;;29.50;70.50;;;;;;5143104;28;20030;-73
2023/07/02 12:27:02;;;;;;;1.65;1.10;;;29.80;80.00;;;;;;5176386;28;20030;-72
2023/07/02 12:29:37;;;;;;;1.70;1.35;;;29.90;66.10;;;;;;5158915;28;20230;-72
2023/07/02 12:32:09;;;;;;;1.55;1.35;;;29.70;38.60;;;;;;5159121;28;20214;-72
2023/07/02 12:34:40;;;;;;;2.13;1.23;;;29.50;48.70;;;;;;5160419;28;20317;-72
2023/07/02 12:37:16;;;;;;;3.00;1.25;;;29.10;20.70;;;;;;5176502;28;20038;-73
2023/07/02 12:39:48;;;;;;;2.83;1.20;;;29.20;57.50;;;;;;5159844;28;20037;-72
2023/07/02 12:42:22;;;;;;;1.63;1.33;;;28.70;33.90;;;;;;5177243;28;20030;-71
2023/07/02 12:44:53;;;;;;;1.10;1.00;;;28.40;74.00;;;;;;5159884;28;20035;-72
2023/07/02 12:47:27;;;;;;;1.50;1.10;;;28.50;91.40;;;;;;5176838;28;20049;-72
2023/07/02 12:49:58;;;;;;;1.30;1.13;;;28.10;35.40;;;;;;5159885;28;20038;-72
2023/07/02 12:52:35;;;;;;;1.05;0.95;;;27.40;42.50;;;;;;5159634;28;20038;-72
2023/07/02 12:55:09;;;;;;;1.10;1.00;;;27.00;11.50;;;;;;5176687;28;20037;-72
2023/07/02 12:57:40;;;;;;;1.20;1.10;;;27.30;46.70;;;;;;5176237;28;20031;-72
2023/07/02 13:00:12;;;;;;;3.53;1.15;;;28.90;93.60;;;;;;5159514;28;20030;-73
2023/07/02 13:02:43;;;;;;;1.15;1.02;;;29.30;99.90;;;;;;5182243;28;20405;-71
2023/07/02 13:08:45;;;;;;;1.30;1.20;;;29.80;96.00;;;;;;5201446;28;20013;-72
2023/07/02 13:11:16;;;;;;;0.88;0.88;;;30.20;46.80;;;;;;5167678;28;20033;-72
2023/07/02 13:13:47;;;;;;;1.23;1.13;;;29.50;1.00;;;;;;5182940;28;20040;-72
2023/07/02 13:16:19;;;;;;;2.55;1.20;;;29.20;1.00;;;;;;5183478;28;20290;-72
2023/07/02 13:18:51;;;;;;;1.00;1.00;;;29.30;27.00;;;;;;5183991;28;20034;-72
2023/07/02 13:21:22;;;;;;;0.82;0.77;;;30.00;28.80;;;;;;5167951;28;20030;-72
2023/07/02 13:23:55;;;;;;;1.85;1.30;;;30.70;9.90;;;;;;5183730;28;20052;-72
2023/07/02 13:26:28;;;;;;;1.20;1.00;;;31.20;1.00;;;;;;5200548;28;20034;-72
2023/07/02 13:29:00;;;;;;;1.63;1.17;;;31.70;1.00;;;;;;5166498;28;20325;-71
2023/07/02 13:31:32;;;;;;;1.00;0.93;;;31.60;1.00;;;;;;5201099;28;20036;-72
2023/07/02 13:34:03;;;;;;;1.23;0.80;;;30.90;1.00;;;;;;5166520;28;20029;-71
2023/07/02 13:36:37;;;;;;;0.63;0.60;;;30.50;1.00;;;;;;5200792;28;20040;-72
2023/07/02 13:39:11;;;;;;;0.90;0.90;;;29.30;1.00;;;;;;5183211;28;20038;-73
2023/07/02 13:41:42;;;;;;;0.75;0.75;;;28.00;1.00;;;;;;5167471;28;20039;-72
2023/07/02 13:44:15;;;;;;;1.00;0.90;;;28.00;1.00;;;;;;5166607;28;20044;-72